• Join FlightAware (Why Join?)
  • Login
  • US Flag 
12:13PM EDT


 

Airport Tracker/Info


-or-


 

Live Flight TrackerFlight Track Log ✈ UAL5863 ✈ 30-Apr-2013 ✈ CYQB - KORD

Flight Track Log - Related Links

Times and Time Zones

All times are in EDT time to prevent confusion due to time zone crossing. See the UAL5863 flight status page for this flight to view local times or setup timezone preferences in your user account.

Time Position Orientation Groundspeed Altitude Reporting Facility
EDT Latitude Longitude Course Direction KTS MPH feet Rate Location/Type
08:25AM 46.7667 -71.3333 90° East 150 173 1,700  Level Montreal Center
08:26AM 46.7667 -71.2667 90° East 190 219 3,600 1,380 Climbing Montreal Center
08:27AM 46.7167 -71.3000 205° Southwest 230 265 4,500 1,560 Climbing Montreal Center
08:28AM 46.7000 -71.3833 254° West 250 288 6,800 2,400 Climbing Montreal Center
08:29AM 46.7000 -71.4833 270° West 270 311 9,300 2,100 Climbing Montreal Center
08:30AM 46.7167 -71.6167 280° West 280 322 11,100 1,440 Climbing Montreal Center
08:31AM 46.7333 -71.7333 282° West 320 368 12,200 1,020 Climbing Montreal Center
08:32AM 46.7333 -71.8500 270° West 340 391 13,200 960 Climbing Montreal Center
08:33AM 46.7667 -72.0000 288° West 350 403 14,200 1,140 Climbing Montreal Center
08:34AM 46.7833 -72.1500 279° West 360 414 15,500 1,260 Climbing Montreal Center
08:35AM 46.7833 -72.2833 270° West 370 426 16,800 1,200 Climbing Montreal Center
08:36AM 46.7667 -72.4333 261° West 360 414 17,900 1,140 Climbing Montreal Center
08:37AM 46.7333 -72.5833 252° West 360 414 19,100 1,200 Climbing Montreal Center
08:38AM 46.7000 -72.7333 252° West 360 414 20,400 1,140 Climbing Montreal Center
08:39AM 46.6667 -72.8833 252° West 370 426 21,400 960 Climbing Montreal Center
08:40AM 46.6500 -73.0333 261° West 380 437 22,400 960 Climbing Montreal Center
08:41AM 46.6167 -73.1833 252° West 390 449 23,400 960 Climbing Montreal Center
08:42AM 46.5833 -73.3333 252° West 390 449 24,400 960 Climbing Montreal Center
08:43AM 46.5500 -73.5000 254° West 390 449 25,400 960 Climbing Montreal Center
08:44AM 46.5167 -73.6500 252° West 390 449 26,400 960 Climbing Montreal Center
08:45AM 46.5000 -73.8000 261° West 390 449 27,400 960 Climbing Montreal Center
08:46AM 46.4667 -73.9500 252° West 390 449 28,400 960 Climbing Montreal Center
08:47AM 46.4333 -74.1000 252° West 380 437 29,400 960 Climbing Montreal Center
08:48AM 46.4000 -74.2333 250° West 380 437 30,400 960 Climbing Montreal Center
08:49AM 46.3667 -74.3833 252° West 390 449 31,400 960 Climbing Montreal Center
08:50AM 46.3500 -74.5500 262° West 390 449 32,400 960 Climbing Montreal Center
08:51AM 46.3333 -74.7000 261° West 390 449 33,400 780 Climbing Montreal Center
08:52AM 46.3167 -74.8667 262° West 390 449 34,000 240 Climbing Montreal Center
08:53AM 46.3167 -75.0167 270° West 410 472 34,000  Level Montreal Center
08:54AM 46.3167 -75.1833 270° West 410 472 34,000  Level Montreal Center
08:55AM 46.3000 -75.3667 263° West 410 472 34,000  Level Montreal Center
08:56AM 46.2833 -75.5333 262° West 410 472 34,000 420 Level Montreal Center
08:57AM 46.2667 -75.7000 262° West 410 472 34,900 960 Climbing Montreal Center
08:58AM 46.2500 -75.8500 261° West 390 449 36,000 540 Climbing Montreal Center
08:59AM 46.2500 -76.0167 270° West 400 460 36,000  Level Montreal Center
09:00AM 46.2333 -76.1667 261° West 410 472 36,000  Level Montreal Center
09:01AM 46.2167 -76.3333 262° West 410 472 36,000  Level Montreal Center
09:02AM 46.2000 -76.5000 262° West 410 472 36,000  Level Montreal Center
09:03AM 46.1833 -76.6500 261° West 410 472 36,000  Level Montreal Center
09:04AM 46.1833 -76.8167 270° West 400 460 36,000  Level Montreal Center
09:05AM 46.1500 -76.9333 248° West 410 472 36,000  Level Toronto Center
09:06AM 46.1333 -77.1500 264° West 400 460 36,000  Level Montreal Center
09:07AM 46.1167 -77.2667 258° West 410 472 36,000  Level Toronto Center
09:08AM 46.1167 -77.4500 270° West 410 472 36,000  Level Toronto Center
09:09AM 46.1000 -77.6167 262° West 420 483 36,000  Level Toronto Center
09:10AM 46.0833 -77.7833 262° West 420 483 36,000  Level Toronto Center
09:11AM 46.0500 -77.9333 252° West 410 472 36,000  Level Toronto Center
09:12AM 46.0333 -78.1000 262° West 410 472 36,000  Level Toronto Center
09:13AM 46.0167 -78.2667 262° West 410 472 36,000  Level Toronto Center
09:14AM 46.0167 -78.4333 270° West 410 472 36,000  Level Toronto Center
09:15AM 46.0000 -78.5833 261° West 410 472 36,000  Level Toronto Center
09:16AM 45.9833 -78.7500 262° West 410 472 36,000  Level Toronto Center
09:17AM 45.9667 -78.9167 262° West 410 472 36,000  Level Toronto Center
09:18AM 45.9500 -79.0833 262° West 410 472 36,000  Level Toronto Center
09:19AM 45.9167 -79.2500 254° West 410 472 36,000  Level Toronto Center
09:20AM 45.9000 -79.4000 261° West 410 472 36,000  Level Toronto Center
09:21AM 45.8833 -79.5667 262° West 420 483 36,000  Level Toronto Center
09:22AM 45.8667 -79.7333 262° West 420 483 36,000  Level Toronto Center
09:23AM 45.8500 -79.9000 262° West 420 483 36,000  Level Toronto Center
09:24AM 45.8333 -80.0667 262° West 420 483 36,000  Level Toronto Center
09:25AM 45.8167 -80.2333 262° West 420 483 36,000  Level Toronto Center
09:26AM 45.8000 -80.3667 260° West 420 483 36,000  Level Toronto Center
09:27AM 45.7667 -80.5333 254° West 420 483 36,000  Level Toronto Center
09:28AM 45.7500 -80.7000 262° West 420 483 36,000  Level Toronto Center
09:29AM 45.7333 -80.8667 262° West 420 483 36,000  Level Toronto Center
09:30AM 45.7000 -81.0333 254° West 420 483 36,000  Level Toronto Center
09:31AM 45.6833 -81.2000 262° West 420 483 36,000  Level Toronto Center
09:32AM 45.6667 -81.3667 262° West 420 483 36,000  Level Toronto Center
09:33AM 45.6500 -81.5167 261° West 420 483 36,000  Level Toronto Center
09:34AM 45.6167 -81.6833 254° West 410 472 36,000  Level Toronto Center
09:35AM 45.6000 -81.8500 262° West 410 472 36,000  Level Toronto Center
09:36AM 45.5667 -82.0167 254° West 400 460 36,000  Level Toronto Center
09:37AM 45.5500 -82.1500 260° West 400 460 36,000  Level Toronto Center
09:38AM 45.5333 -82.3167 262° West 400 460 36,000  Level Toronto Center
09:39AM 45.5167 -82.4667 261° West 400 460 36,000  Level Toronto Center
09:40AM 45.5000 -82.6333 262° West 400 460 36,000  Level Toronto Center
09:41AM 45.4667 -82.7667 250° West 410 472 36,000  Level Toronto Center
09:42AM 45.4500 -82.9667 263° West 410 472 36,000  Level Toronto Center
09:43AM 45.4167 -83.1000 250° West 400 460 36,000  Level Toronto Center
09:44AM 45.4000 -83.2500 261° West 400 460 36,000  Level Toronto Center
09:45AM 45.3667 -83.4000 252° West 390 449 36,000  Level Toronto Center
09:45AM 45.3714 -83.5058 274° West 393 452 36,000  Level Minneapolis Center
09:47AM 45.3475 -83.6567 257° West 392 451 36,000  Level Minneapolis Center
09:48AM 45.3214 -83.8383 259° West 392 451 36,000  Level Minneapolis Center
09:49AM 45.2933 -84.0192 258° West 392 451 36,000  Level Minneapolis Center
09:50AM 45.2706 -84.1694 258° West 391 450 36,000  Level Minneapolis Center
09:51AM 45.2461 -84.3194 257° West 391 450 36,000 -60 Level Minneapolis Center
09:52AM 45.1947 -84.4525 241° Southwest 397 457 35,900  Descending Minneapolis Center
09:53AM 45.0908 -84.5169 204° Southwest 401 461 36,000  Climbing Minneapolis Center
09:54AM 44.9822 -84.5711 199° South 410 472 36,000  Level Minneapolis Center
09:55AM 44.8742 -84.6272 200° South 412 474 36,000  Level Minneapolis Center
09:56AM 44.7675 -84.6817 200° South 409 471 36,000  Level Minneapolis Center
09:57AM 44.6606 -84.7356 200° South 407 468 36,000 -300 Level Minneapolis Center
09:58AM 44.5556 -84.7886 200° South 402 463 35,500 -840 Descending Minneapolis Center
09:59AM 44.4494 -84.8419 200° South 403 464 34,400 -1,260 Descending Minneapolis Center
10:00AM 44.3189 -84.9081 200° South 410 472 33,000 -1,200 Descending Minneapolis Center
10:01AM 44.2072 -84.9639 200° South 420 483 32,000 -540 Descending Minneapolis Center
10:02AM 44.0978 -85.0236 201° Southwest 420 483 32,000  Level Minneapolis Center
10:03AM 44.0231 -85.1203 223° Southwest 418 481 32,000  Level Minneapolis Center
10:04AM 43.9197 -85.2561 223° Southwest 426 490 32,000  Level Minneapolis Center
10:05AM 43.8328 -85.3694 223° Southwest 428 493 32,000  Level Minneapolis Center
10:06AM 43.7472 -85.4814 223° Southwest 427 491 32,000  Level Minneapolis Center
10:07AM 43.6617 -85.5922 223° Southwest 424 488 32,000  Level Minneapolis Center
10:08AM 43.5767 -85.7022 223° Southwest 421 484 32,000 -300 Level Minneapolis Center
10:09AM 43.4919 -85.8106 223° Southwest 419 482 31,400 -1,200 Descending Minneapolis Center
10:10AM 43.3931 -85.9372 223° Southwest 407 468 29,400 -1,800 Descending Chicago Center
10:11AM 43.3125 -86.0422 224° Southwest 405 466 27,500 -1,920 Descending Chicago Center
10:12AM 43.2297 -86.1481 223° Southwest 410 472 25,500 -2,100 Descending Chicago Center
10:13AM 43.1275 -86.2756 222° Southwest 418 481 23,200 -2,100 Descending Chicago Center
10:14AM 43.0419 -86.3831 223° Southwest 424 488 21,200 -1,980 Descending Chicago Center
10:15AM 42.9594 -86.4842 222° Southwest 409 471 19,200 -2,040 Descending Chicago Center
10:16AM 42.8839 -86.5794 223° Southwest 371 427 17,100 -1,980 Descending Chicago Center
10:17AM 42.8153 -86.6650 222° Southwest 350 403 15,200 -1,800 Descending Chicago Center
10:18AM 42.7358 -86.7722 225° Southwest 338 389 13,400 -1,620 Descending Chicago Center
10:20AM 42.6794 -86.8681 231° Southwest 331 381 11,900 -1,500 Descending Chicago Center
10:21AM 42.6289 -86.9492 230° Southwest 292 336 10,400 -1,380 Descending Chicago Center
10:22AM 42.5836 -87.0228 230° Southwest 260 299 9,100 -720 Descending Chicago Center
10:23AM 42.5400 -87.0944 230° Southwest 249 287 9,000 -60 Descending Chicago Center
10:24AM 42.4947 -87.1681 230° Southwest 252 290 9,000  Level Chicago Center
10:25AM 42.4414 -87.2575 231° Southwest 257 296 9,000  Level Chicago Center
10:26AM 42.3969 -87.3328 231° Southwest 257 296 9,000 -300 Level Chicago Center
10:27AM 42.3544 -87.4061 232° Southwest 251 289 8,400 -720 Descending Chicago Center
10:28AM 42.3108 -87.4806 232° Southwest 252 290 7,600 -540 Descending Chicago Center
10:29AM 42.2692 -87.5511 231° Southwest 246 283 7,300 -420 Descending Chicago Center
10:30AM 42.2189 -87.6361 231° Southwest 244 281 6,800 -840 Descending Chicago Center
10:31AM 42.1758 -87.7042 230° Southwest 241 277 5,600 -1,200 Descending Chicago Center
10:32AM 42.1256 -87.7542 216° Southwest 228 262 4,400 -1,440 Descending Chicago Center
10:33AM 42.0833 -87.8167 228° Southwest 199 229 2,700 -1,320 Descending Chicago TRACON
10:34AM 42.0500 -87.8500 217° Southwest 148 170 1,900 -840 Descending Chicago TRACON
10:35AM 42.0167 -87.8667 200° South 116 133 1,200 -720 Descending Chicago TRACON
10:37AM 41.9817 -87.9067 206° Southwest  Level Estimated